Time;durP1;ratioP1;P1;durP2;ratioP2;P2;SDS_P1;SDS_P2;PMS_P1;PMS_P2;Temp;Humidity;BMP_temperature;BMP_pressure;BME280_temperature;BME280_humidity;BME280_pressure;Samples;Min_cycle;Max_cycle;Signal;HPM_P1;HPM_P2
2023/03/02 00:01:28;;;;;;;0.73;0.73;;;2.30;99.90;;;;;;5055470;28;20235;-80
2023/03/02 00:03:57;;;;;;;0.70;0.70;;;2.30;99.90;;;;;;5055714;28;20223;-80
2023/03/02 00:06:25;;;;;;;0.50;0.50;;;2.30;99.90;;;;;;5073378;28;20221;-80
2023/03/02 00:08:51;;;;;;;0.55;0.55;;;2.20;99.90;;;;;;5073719;28;20242;-79
2023/03/02 00:11:18;;;;;;;0.50;0.50;;;2.30;99.90;;;;;;5073584;28;20193;-80
2023/03/02 00:13:44;;;;;;;0.70;0.70;;;2.40;99.90;;;;;;5073562;28;20189;-79
2023/03/02 00:16:10;;;;;;;0.63;0.63;;;2.40;99.90;;;;;;5073450;28;20185;-81
2023/03/02 00:18:35;;;;;;;0.60;0.60;;;2.40;99.90;;;;;;5072475;28;20192;-80
2023/03/02 00:21:01;;;;;;;0.60;0.60;;;2.30;99.90;;;;;;5073439;28;20673;-80
2023/03/02 00:23:27;;;;;;;0.60;0.60;;;2.40;99.90;;;;;;5074945;28;20198;-79
2023/03/02 00:25:53;;;;;;;0.60;0.60;;;2.40;99.90;;;;;;5075449;28;20212;-80
2023/03/02 00:28:18;;;;;;;0.60;0.60;;;2.40;99.90;;;;;;5093468;28;20231;-80
2023/03/02 00:30:44;;;;;;;0.60;0.60;;;2.30;99.90;;;;;;5093607;28;20181;-80
2023/03/02 00:33:10;;;;;;;0.60;0.60;;;2.30;99.90;;;;;;5083961;28;20230;-79
2023/03/02 00:35:37;;;;;;;0.50;0.50;;;2.30;99.90;;;;;;5072963;28;20216;-79
2023/03/02 00:38:03;;;;;;;0.70;0.70;;;2.30;99.90;;;;;;5055146;28;20197;-79
2023/03/02 00:40:29;;;;;;;0.50;0.50;;;2.30;99.90;;;;;;5072855;28;20215;-79
2023/03/02 00:42:55;;;;;;;0.50;0.50;;;2.20;99.90;;;;;;5073110;28;20193;-79
2023/03/02 00:45:20;;;;;;;0.70;0.70;;;2.20;99.90;;;;;;5071484;28;20600;-79
2023/03/02 00:47:46;;;;;;;0.50;0.50;;;2.10;99.90;;;;;;5055157;28;20741;-80
2023/03/02 00:50:12;;;;;;;0.93;0.93;;;2.20;99.90;;;;;;5054935;28;20379;-80
2023/03/02 00:52:37;;;;;;;0.57;0.57;;;2.20;99.90;;;;;;5054819;28;20193;-79
2023/03/02 00:55:03;;;;;;;0.50;0.50;;;2.20;99.90;;;;;;5054799;28;20197;-79
2023/03/02 00:57:29;;;;;;;0.60;0.60;;;2.20;99.90;;;;;;5072530;28;20196;-79
2023/03/02 00:59:55;;;;;;;0.50;0.50;;;2.30;99.90;;;;;;5054850;28;20226;-79
2023/03/02 01:02:20;;;;;;;0.68;0.68;;;2.20;99.90;;;;;;5053909;28;20626;-79
2023/03/02 01:04:47;;;;;;;0.50;0.50;;;2.20;99.90;;;;;;5072496;28;20688;-79
2023/03/02 01:07:15;;;;;;;0.60;0.60;;;2.30;99.90;;;;;;5072394;28;20209;-80
2023/03/02 01:09:43;;;;;;;0.60;0.60;;;2.20;99.90;;;;;;5054652;28;20197;-80
2023/03/02 01:12:10;;;;;;;0.70;0.70;;;2.30;99.90;;;;;;5072556;28;20216;-79
2023/03/02 01:14:42;;;;;;;0.57;0.57;;;2.20;99.90;;;;;;5054709;28;20227;-79
2023/03/02 01:17:10;;;;;;;0.60;0.60;;;2.20;99.90;;;;;;5072593;28;20276;-79
2023/03/02 01:19:36;;;;;;;0.50;0.50;;;2.20;99.90;;;;;;5073224;28;20200;-80
2023/03/02 01:22:01;;;;;;;0.40;0.40;;;2.10;99.90;;;;;;5092690;28;20678;-80
2023/03/02 01:24:27;;;;;;;0.50;0.50;;;2.10;99.90;;;;;;5092423;28;20203;-82
2023/03/02 01:26:53;;;;;;;0.50;0.50;;;2.10;99.90;;;;;;5092589;28;20213;-79
2023/03/02 01:29:19;;;;;;;0.60;0.60;;;2.00;99.90;;;;;;5066068;28;20193;-80
2023/03/02 01:31:45;;;;;;;0.60;0.60;;;2.00;99.90;;;;;;5072396;28;20267;-80
2023/03/02 01:34:11;;;;;;;0.50;0.50;;;1.90;99.90;;;;;;5072165;28;20197;-80
2023/03/02 01:36:36;;;;;;;0.80;0.80;;;1.90;99.90;;;;;;5072268;28;20720;-80
2023/03/02 01:39:03;;;;;;;0.50;0.50;;;1.80;99.90;;;;;;5054271;28;20212;-79
2023/03/02 01:41:29;;;;;;;0.60;0.60;;;1.80;99.90;;;;;;5072153;28;20191;-79
2023/03/02 01:43:55;;;;;;;0.77;0.77;;;1.80;99.90;;;;;;5072418;28;20682;-80
2023/03/02 01:46:27;;;;;;;0.60;0.60;;;1.70;99.90;;;;;;5071876;28;20197;-79
2023/03/02 01:48:58;;;;;;;0.55;0.55;;;1.70;99.90;;;;;;5072318;28;20192;-80
2023/03/02 01:51:26;;;;;;;0.63;0.63;;;1.70;99.90;;;;;;5071862;28;20189;-79
2023/03/02 01:53:57;;;;;;;0.60;0.60;;;1.70;99.90;;;;;;5054312;28;20204;-79
2023/03/02 01:56:29;;;;;;;0.70;0.70;;;1.70;99.90;;;;;;5071915;28;20580;-79
2023/03/02 01:59:02;;;;;;;0.60;0.60;;;1.70;99.90;;;;;;5072229;28;20192;-80
2023/03/02 02:01:31;;;;;;;0.40;0.40;;;1.70;99.90;;;;;;5072102;28;20195;-76
2023/03/02 02:03:57;;;;;;;0.50;0.50;;;1.80;99.90;;;;;;5050022;28;20692;-75
2023/03/02 02:06:33;;;;;;;0.60;0.60;;;1.80;99.90;;;;;;5072350;28;20203;-76
2023/03/02 02:09:02;;;;;;;0.60;0.60;;;1.80;99.90;;;;;;5054086;28;20204;-76
2023/03/02 02:11:28;;;;;;;0.60;0.60;;;1.90;99.90;;;;;;5071836;28;20544;-76
2023/03/02 02:13:57;;;;;;;0.55;0.55;;;1.80;99.90;;;;;;5075746;28;20215;-75
2023/03/02 02:16:23;;;;;;;0.60;0.60;;;1.90;99.90;;;;;;5095801;28;20196;-76
2023/03/02 02:18:49;;;;;;;0.68;0.68;;;1.90;99.90;;;;;;5096168;28;20192;-75
2023/03/02 02:21:16;;;;;;;0.68;0.68;;;1.90;99.90;;;;;;5096035;28;20330;-76
2023/03/02 02:23:50;;;;;;;0.52;0.52;;;1.90;99.90;;;;;;5096087;28;20224;-75
2023/03/02 02:26:26;;;;;;;0.50;0.50;;;1.90;99.90;;;;;;5063374;28;20283;-76
2023/03/02 02:29:06;;;;;;;0.60;0.60;;;1.90;99.90;;;;;;5075502;28;20191;-76
2023/03/02 02:31:44;;;;;;;0.60;0.60;;;1.90;99.90;;;;;;5057429;28;20655;-76
2023/03/02 02:34:16;;;;;;;0.40;0.40;;;1.90;99.90;;;;;;5075268;28;20560;-76
2023/03/02 02:36:45;;;;;;;0.60;0.60;;;2.00;99.90;;;;;;5075258;28;20189;-76
2023/03/02 02:39:22;;;;;;;0.50;0.50;;;2.00;99.90;;;;;;5075413;28;20207;-76
2023/03/02 02:41:50;;;;;;;0.52;0.52;;;2.00;99.90;;;;;;5057563;28;20285;-76
2023/03/02 02:44:18;;;;;;;0.60;0.60;;;1.90;99.90;;;;;;5057295;28;20201;-76
2023/03/02 02:46:44;;;;;;;0.50;0.50;;;1.90;99.90;;;;;;5057083;28;20615;-76
2023/03/02 02:49:35;;;;;;;0.60;0.60;;;1.80;99.90;;;;;;5075134;28;20590;-76
2023/03/02 02:52:02;;;;;;;0.60;0.60;;;1.80;99.90;;;;;;5075172;28;20200;-76
2023/03/02 02:54:30;;;;;;;0.50;0.50;;;1.70;99.90;;;;;;5056926;28;20196;-77
2023/03/02 02:56:58;;;;;;;0.50;0.50;;;1.60;99.90;;;;;;5075111;28;20651;-76
2023/03/02 02:59:31;;;;;;;0.60;0.60;;;1.60;99.90;;;;;;5074571;28;20224;-77
2023/03/02 03:01:58;;;;;;;0.50;0.50;;;1.60;99.90;;;;;;5056140;28;20303;-76
2023/03/02 03:04:28;;;;;;;0.50;0.50;;;1.60;99.90;;;;;;5053205;28;20251;-77
2023/03/02 03:07:00;;;;;;;0.50;0.50;;;1.60;99.90;;;;;;5054847;28;20236;-77
2023/03/02 03:09:27;;;;;;;0.60;0.60;;;1.50;99.90;;;;;;5053174;28;20232;-76
2023/03/02 03:12:14;;;;;;;0.60;0.60;;;1.50;99.90;;;;;;5070553;28;20229;-76
2023/03/02 03:14:40;;;;;;;0.47;0.47;;;1.30;99.90;;;;;;5074716;28;20243;-76
2023/03/02 03:17:10;;;;;;;0.50;0.50;;;1.30;99.90;;;;;;5073396;28;20193;-76
2023/03/02 03:19:38;;;;;;;0.50;0.50;;;1.30;99.90;;;;;;5073254;28;20200;-76
2023/03/02 03:22:03;;;;;;;0.60;0.60;;;1.20;99.90;;;;;;5086778;28;20669;-76
2023/03/02 03:24:31;;;;;;;0.60;0.60;;;1.10;99.90;;;;;;5053923;28;20251;-76
2023/03/02 03:26:58;;;;;;;0.50;0.50;;;0.90;99.90;;;;;;5053156;28;20212;-76
2023/03/02 03:29:25;;;;;;;0.60;0.60;;;0.70;99.90;;;;;;5054321;28;20691;-76
2023/03/02 03:31:53;;;;;;;0.70;0.70;;;0.60;99.90;;;;;;5053482;28;20248;-76
2023/03/02 03:34:20;;;;;;;0.60;0.60;;;0.50;99.90;;;;;;5049433;28;20689;-77
2023/03/02 03:36:46;;;;;;;0.57;0.57;;;0.30;99.90;;;;;;5050107;28;20205;-76
2023/03/02 03:39:13;;;;;;;0.70;0.70;;;0.20;99.90;;;;;;5049645;28;20210;-76
2023/03/02 03:41:39;;;;;;;0.60;0.60;;;0.10;99.90;;;;;;5034249;28;21628;-76
2023/03/02 03:44:05;;;;;;;0.50;0.50;;;-0.10;99.90;;;;;;5038055;28;20268;-76
2023/03/02 03:46:31;;;;;;;0.60;0.60;;;-0.30;99.90;;;;;;5053871;28;20201;-76
2023/03/02 03:48:57;;;;;;;0.50;0.50;;;-0.50;99.90;;;;;;5054224;28;20197;-77
2023/03/02 03:51:23;;;;;;;0.60;0.60;;;-0.60;99.90;;;;;;5053895;28;20193;-76
2023/03/02 03:53:58;;;;;;;0.63;0.63;;;-0.70;99.90;;;;;;5052849;28;20251;-76
2023/03/02 03:56:28;;;;;;;0.60;0.60;;;-0.70;99.90;;;;;;5052368;28;20254;-76
2023/03/02 03:59:05;;;;;;;0.68;0.68;;;-0.70;99.90;;;;;;5054030;28;20741;-75
2023/03/02 04:01:52;;;;;;;0.60;0.60;;;-0.80;99.90;;;;;;5048062;28;20661;-76
2023/03/02 04:04:25;;;;;;;0.60;0.60;;;-0.80;99.90;;;;;;5054730;28;20228;-77
2023/03/02 04:06:51;;;;;;;0.60;0.60;;;-0.90;99.90;;;;;;5062209;28;20645;-76
2023/03/02 04:09:18;;;;;;;0.70;0.70;;;-0.90;99.90;;;;;;5093973;28;20190;-76
2023/03/02 04:11:45;;;;;;;0.60;0.60;;;-0.90;99.90;;;;;;5093825;28;20242;-76
2023/03/02 04:14:12;;;;;;;0.60;0.60;;;-0.90;99.90;;;;;;5093873;28;20219;-76
2023/03/02 04:16:40;;;;;;;0.68;0.68;;;-0.90;99.90;;;;;;5093649;28;20203;-75
2023/03/02 04:19:09;;;;;;;0.50;0.50;;;-0.90;99.90;;;;;;5058786;28;20250;-76
2023/03/02 04:21:40;;;;;;;0.55;0.55;;;-1.00;99.90;;;;;;5055278;28;20200;-76
2023/03/02 04:24:08;;;;;;;0.60;0.60;;;-1.10;99.90;;;;;;5073356;28;20686;-75
2023/03/02 04:26:35;;;;;;;0.60;0.60;;;-1.20;99.90;;;;;;5073121;28;20236;-76
2023/03/02 04:29:02;;;;;;;0.68;0.68;;;-1.20;99.90;;;;;;5073364;28;20267;-76
2023/03/02 04:31:30;;;;;;;0.60;0.60;;;-1.20;99.90;;;;;;5073108;28;20217;-76
2023/03/02 04:33:56;;;;;;;0.70;0.70;;;-1.30;99.90;;;;;;5051779;28;20193;-76
2023/03/02 04:36:22;;;;;;;0.70;0.70;;;-1.40;99.90;;;;;;5050901;28;20194;-76
2023/03/02 04:38:48;;;;;;;0.60;0.60;;;-1.40;99.90;;;;;;5051971;28;20197;-76
2023/03/02 04:41:14;;;;;;;0.70;0.70;;;-1.40;99.90;;;;;;5064113;28;20203;-76
2023/03/02 04:43:40;;;;;;;0.70;0.70;;;-1.40;99.90;;;;;;5072969;28;20199;-76
2023/03/02 04:46:06;;;;;;;0.60;0.60;;;-1.40;99.90;;;;;;5072984;28;20189;-76
2023/03/02 04:48:32;;;;;;;0.70;0.70;;;-1.30;99.90;;;;;;5054810;28;20262;-75
2023/03/02 04:50:57;;;;;;;0.70;0.70;;;-1.30;99.90;;;;;;5055015;28;20193;-76
2023/03/02 04:53:23;;;;;;;0.70;0.70;;;-1.30;99.90;;;;;;5054662;28;20207;-76
2023/03/02 04:55:49;;;;;;;0.70;0.70;;;-1.30;99.90;;;;;;5072963;28;20670;-76
2023/03/02 04:58:15;;;;;;;0.70;0.70;;;-1.30;99.90;;;;;;5054782;28;20200;-76
2023/03/02 05:00:41;;;;;;;0.60;0.60;;;-1.40;99.90;;;;;;5054870;28;20690;-76
2023/03/02 05:03:07;;;;;;;0.70;0.70;;;-1.60;99.90;;;;;;5079124;28;20271;-75
2023/03/02 05:05:32;;;;;;;0.70;0.70;;;-1.70;99.90;;;;;;5092394;28;20742;-75
2023/03/02 05:07:58;;;;;;;0.60;0.60;;;-1.70;99.90;;;;;;5092862;28;20283;-75
2023/03/02 05:10:26;;;;;;;0.60;0.60;;;-1.80;99.90;;;;;;5074495;28;20690;-76
2023/03/02 05:13:01;;;;;;;1.50;1.40;;;-1.90;99.90;;;;;;5092912;28;20188;-76
2023/03/02 05:15:37;;;;;;;0.80;0.80;;;-1.90;99.90;;;;;;5056739;28;20677;-75
2023/03/02 05:18:06;;;;;;;0.70;0.70;;;-2.00;99.90;;;;;;5072611;28;20258;-75
2023/03/02 05:20:31;;;;;;;0.60;0.60;;;-2.00;99.90;;;;;;5054390;28;20197;-74
2023/03/02 05:23:00;;;;;;;0.70;0.70;;;-2.10;99.90;;;;;;5072584;28;20247;-76
2023/03/02 05:25:29;;;;;;;0.63;0.63;;;-2.10;99.90;;;;;;5072229;28;20263;-76
2023/03/02 05:27:54;;;;;;;0.70;0.70;;;-2.10;99.90;;;;;;5054351;28;20215;-75
2023/03/02 05:30:21;;;;;;;0.70;0.70;;;-2.10;99.90;;;;;;5072208;28;20189;-76
2023/03/02 05:32:48;;;;;;;0.63;0.63;;;-2.10;99.90;;;;;;5072236;28;20564;-75
2023/03/02 05:35:14;;;;;;;0.60;0.60;;;-2.20;99.90;;;;;;5054428;28;20196;-75
2023/03/02 05:37:41;;;;;;;0.57;0.57;;;-2.20;99.90;;;;;;5072007;28;20280;-75
2023/03/02 05:40:08;;;;;;;0.63;0.63;;;-2.30;99.90;;;;;;5054271;28;20646;-75
2023/03/02 05:42:35;;;;;;;0.70;0.70;;;-2.30;99.90;;;;;;5072123;28;20215;-75
2023/03/02 05:45:03;;;;;;;0.70;0.70;;;-2.30;99.90;;;;;;5072217;28;20738;-75
2023/03/02 05:47:28;;;;;;;0.70;0.70;;;-2.30;99.90;;;;;;5072282;28;20338;-75
2023/03/02 05:49:54;;;;;;;0.60;0.60;;;-2.30;99.90;;;;;;5056393;28;20700;-75
2023/03/02 05:52:20;;;;;;;0.70;0.70;;;-2.30;99.90;;;;;;5054735;28;20379;-76
2023/03/02 05:54:46;;;;;;;0.70;0.70;;;-2.30;99.90;;;;;;5054800;28;20194;-75
2023/03/02 05:57:11;;;;;;;0.80;0.80;;;-2.30;99.90;;;;;;5056122;28;20679;-75
2023/03/02 05:59:37;;;;;;;0.70;0.70;;;-2.40;99.90;;;;;;5073586;28;20207;-75
2023/03/02 06:02:03;;;;;;;0.70;0.70;;;-2.50;99.90;;;;;;5077944;28;20286;-75
2023/03/02 06:04:29;;;;;;;0.73;0.73;;;-2.50;99.90;;;;;;5095747;28;20228;-75
2023/03/02 06:06:54;;;;;;;0.60;0.60;;;-2.60;99.90;;;;;;5095980;28;20208;-75
2023/03/02 06:09:21;;;;;;;1.80;1.40;;;-2.60;99.90;;;;;;5096045;28;20254;-75
2023/03/02 06:11:47;;;;;;;0.70;0.70;;;-2.70;99.90;;;;;;5077501;28;20197;-76
2023/03/02 06:14:13;;;;;;;0.80;0.80;;;-2.60;99.90;;;;;;5075898;28;20280;-75
2023/03/02 06:16:39;;;;;;;0.60;0.60;;;-2.60;99.90;;;;;;5075357;28;20726;-75
2023/03/02 06:19:05;;;;;;;0.77;0.77;;;-2.60;99.90;;;;;;5075599;28;20193;-75
2023/03/02 06:21:31;;;;;;;0.70;0.70;;;-2.30;99.90;;;;;;5075427;28;20211;-75
2023/03/02 06:23:57;;;;;;;0.60;0.60;;;-2.30;99.90;;;;;;5075694;28;20197;-75
2023/03/02 06:26:22;;;;;;;0.60;0.60;;;-2.20;99.90;;;;;;5057140;28;20204;-75
2023/03/02 06:28:48;;;;;;;0.52;0.52;;;-2.20;99.90;;;;;;5075714;28;20271;-77
2023/03/02 06:31:14;;;;;;;0.52;0.52;;;-2.20;99.90;;;;;;5057582;28;20245;-75
2023/03/02 06:33:39;;;;;;;0.60;0.60;;;-2.10;99.90;;;;;;5057005;28;20204;-75
2023/03/02 06:36:05;;;;;;;0.70;0.70;;;-2.10;99.90;;;;;;5075381;28;20185;-75
2023/03/02 06:38:31;;;;;;;0.60;0.60;;;-2.10;99.90;;;;;;5075152;28;20559;-75
2023/03/02 06:40:58;;;;;;;0.70;0.70;;;-2.10;99.90;;;;;;5075242;28;20653;-75
2023/03/02 06:43:24;;;;;;;0.60;0.60;;;-2.10;99.90;;;;;;5074964;28;20197;-75
2023/03/02 06:45:49;;;;;;;0.70;0.70;;;-2.00;99.90;;;;;;5075254;28;20275;-75
2023/03/02 06:48:16;;;;;;;0.70;0.70;;;-1.90;99.90;;;;;;5075105;28;20201;-75
2023/03/02 06:50:41;;;;;;;0.70;0.70;;;-1.80;99.90;;;;;;5074657;28;20613;-75
2023/03/02 06:53:07;;;;;;;0.70;0.70;;;-1.80;99.90;;;;;;5074969;28;20193;-75
2023/03/02 06:55:33;;;;;;;0.70;0.70;;;-1.70;99.90;;;;;;5080700;28;20211;-75
2023/03/02 06:57:59;;;;;;;0.70;0.70;;;-1.60;99.90;;;;;;5095041;28;20196;-75
2023/03/02 07:00:25;;;;;;;0.70;0.70;;;-1.50;99.90;;;;;;5075745;28;20200;-75
2023/03/02 07:02:51;;;;;;;0.70;0.70;;;-1.50;99.90;;;;;;5094362;28;20386;-75
2023/03/02 07:05:18;;;;;;;0.63;0.63;;;-1.40;99.90;;;;;;5095113;28;20227;-75
2023/03/02 07:07:45;;;;;;;0.60;0.60;;;-1.40;99.90;;;;;;5078710;28;20227;-75
2023/03/02 07:10:12;;;;;;;0.70;0.70;;;-1.30;99.90;;;;;;5074795;28;20197;-75
2023/03/02 07:12:39;;;;;;;0.60;0.60;;;-1.20;99.90;;;;;;5056244;28;20197;-74
2023/03/02 07:15:10;;;;;;;0.68;0.68;;;-1.10;99.90;;;;;;5074168;28;20193;-75
2023/03/02 07:17:36;;;;;;;0.50;0.50;;;-1.10;99.90;;;;;;5074006;28;20189;-75
2023/03/02 07:20:06;;;;;;;0.70;0.70;;;-1.00;99.90;;;;;;5073961;28;20224;-75
2023/03/02 07:22:32;;;;;;;0.60;0.60;;;-1.00;99.90;;;;;;5073908;28;20721;-75
2023/03/02 07:24:58;;;;;;;1.20;1.13;;;-1.00;99.90;;;;;;5074116;28;20655;-75
2023/03/02 07:27:23;;;;;;;0.70;0.70;;;-0.90;99.90;;;;;;5074008;28;20291;-75
2023/03/02 07:29:49;;;;;;;0.60;0.60;;;-0.90;99.90;;;;;;5073770;28;20648;-75
2023/03/02 07:32:15;;;;;;;0.55;0.55;;;-0.80;99.90;;;;;;5073951;28;20192;-75
2023/03/02 07:34:41;;;;;;;0.60;0.60;;;-0.60;99.90;;;;;;5073895;28;20197;-75
2023/03/02 07:37:06;;;;;;;0.60;0.60;;;-0.50;99.90;;;;;;5055808;28;20228;-75
2023/03/02 07:39:32;;;;;;;0.60;0.60;;;-0.30;99.90;;;;;;5073463;28;20188;-76
2023/03/02 07:42:03;;;;;;;0.65;0.65;;;-0.30;99.90;;;;;;5073644;28;20192;-75
2023/03/02 07:44:29;;;;;;;0.57;0.57;;;-0.10;99.90;;;;;;5055481;28;20192;-75
2023/03/02 07:46:55;;;;;;;0.60;0.60;;;0.00;99.90;;;;;;5073439;28;20250;-75
2023/03/02 07:49:21;;;;;;;0.65;0.65;;;0.10;99.90;;;;;;5073816;28;20555;-76
2023/03/02 07:51:46;;;;;;;0.57;0.57;;;0.20;99.90;;;;;;5079371;28;20245;-75
2023/03/02 07:54:12;;;;;;;0.60;0.60;;;0.30;99.90;;;;;;5093036;28;20219;-75
2023/03/02 07:56:38;;;;;;;0.60;0.60;;;0.40;99.90;;;;;;5075313;28;20682;-75
2023/03/02 07:59:04;;;;;;;0.63;0.63;;;0.60;99.90;;;;;;5093663;28;20185;-75
2023/03/02 08:01:29;;;;;;;0.60;0.60;;;0.70;99.90;;;;;;5093435;28;20203;-76
2023/03/02 08:03:55;;;;;;;0.50;0.50;;;0.80;99.90;;;;;;5059984;28;20196;-76
2023/03/02 08:06:21;;;;;;;0.70;0.70;;;1.00;99.90;;;;;;5055181;28;20567;-76
2023/03/02 08:08:48;;;;;;;0.55;0.55;;;1.10;99.90;;;;;;5073627;28;20275;-75
2023/03/02 08:11:17;;;;;;;0.60;0.60;;;1.30;99.90;;;;;;5073429;28;20272;-75
2023/03/02 08:13:43;;;;;;;0.70;0.70;;;1.50;99.90;;;;;;5055463;28;20193;-76
2023/03/02 08:16:11;;;;;;;0.60;0.60;;;1.60;99.90;;;;;;5072989;28;20189;-76
2023/03/02 08:18:37;;;;;;;0.60;0.60;;;1.80;99.90;;;;;;5073381;28;20224;-75
2023/03/02 08:21:12;;;;;;;0.60;0.60;;;2.10;99.90;;;;;;5055094;28;20196;-75
2023/03/02 08:23:38;;;;;;;0.50;0.50;;;2.20;99.90;;;;;;5054893;28;20674;-75
2023/03/02 08:26:04;;;;;;;0.68;0.68;;;2.40;99.90;;;;;;5072896;28;20197;-76
2023/03/02 08:28:29;;;;;;;0.70;0.70;;;2.60;99.90;;;;;;5072697;28;20258;-76
2023/03/02 08:30:57;;;;;;;0.60;0.60;;;2.90;99.90;;;;;;5054814;28;20202;-76
2023/03/02 08:33:23;;;;;;;0.70;0.70;;;3.10;99.90;;;;;;5050684;28;20197;-76
2023/03/02 08:36:04;;;;;;;0.75;0.75;;;3.30;99.90;;;;;;5051435;28;20250;-76
2023/03/02 08:38:31;;;;;;;0.70;0.70;;;3.50;99.90;;;;;;5068785;28;20246;-76
2023/03/02 08:40:57;;;;;;;0.50;0.50;;;3.70;99.90;;;;;;5073183;28;20197;-76
2023/03/02 08:43:24;;;;;;;0.47;0.47;;;3.80;99.90;;;;;;5054919;28;20611;-76
2023/03/02 08:45:56;;;;;;;0.57;0.57;;;3.90;99.90;;;;;;5073013;28;20185;-76
2023/03/02 08:48:23;;;;;;;0.60;0.60;;;4.10;99.90;;;;;;5063687;28;20207;-76
2023/03/02 08:51:07;;;;;;;0.50;0.50;;;4.30;99.90;;;;;;5093239;28;20192;-76
2023/03/02 08:53:36;;;;;;;0.70;0.70;;;4.50;99.90;;;;;;5092941;28;20279;-76
2023/03/02 08:56:03;;;;;;;0.63;0.63;;;4.60;99.90;;;;;;5074999;28;20531;-75
2023/03/02 08:58:29;;;;;;;0.70;0.70;;;4.80;99.90;;;;;;5091519;28;20659;-76
2023/03/02 09:00:55;;;;;;;0.70;0.70;;;5.00;99.90;;;;;;5072758;28;20200;-76
2023/03/02 09:03:20;;;;;;;0.77;0.77;;;5.20;99.90;;;;;;5072341;28;20197;-77
2023/03/02 09:05:46;;;;;;;0.70;0.70;;;5.20;99.90;;;;;;5072497;28;20282;-76
2023/03/02 09:08:12;;;;;;;0.60;0.60;;;5.50;99.90;;;;;;5072604;28;20213;-76
2023/03/02 09:10:38;;;;;;;0.55;0.55;;;5.60;99.90;;;;;;5054580;28;20196;-76
2023/03/02 09:13:04;;;;;;;0.50;0.50;;;5.90;99.90;;;;;;5072618;28;20247;-76
2023/03/02 09:15:30;;;;;;;0.60;0.60;;;6.00;99.90;;;;;;5054447;28;20587;-78
2023/03/02 09:17:56;;;;;;;0.60;0.60;;;5.90;99.90;;;;;;5072535;28;20193;-80
2023/03/02 09:20:22;;;;;;;0.60;0.60;;;6.00;99.90;;;;;;5072279;28;20192;-78
2023/03/02 09:22:49;;;;;;;0.70;0.70;;;6.20;99.90;;;;;;5053837;28;20197;-75
2023/03/02 09:25:19;;;;;;;0.60;0.60;;;6.50;99.90;;;;;;5072382;28;20192;-76
2023/03/02 09:27:45;;;;;;;0.70;0.70;;;6.70;99.90;;;;;;5072362;28;20715;-76
2023/03/02 09:30:13;;;;;;;0.60;0.60;;;6.80;99.90;;;;;;5072403;28;20612;-76
2023/03/02 09:32:38;;;;;;;0.50;0.50;;;6.90;99.90;;;;;;5051867;28;20268;-77
2023/03/02 09:35:04;;;;;;;0.70;0.70;;;6.80;99.90;;;;;;5054488;28;20197;-77
2023/03/02 09:37:30;;;;;;;0.63;0.63;;;6.70;99.90;;;;;;5072139;28;20200;-77
2023/03/02 09:39:56;;;;;;;0.60;0.60;;;6.90;99.90;;;;;;5054373;28;20196;-77
2023/03/02 09:42:41;;;;;;;0.70;0.70;;;7.10;99.90;;;;;;5054335;28;20586;-77
2023/03/02 09:45:29;;;;;;;0.50;0.50;;;7.40;99.90;;;;;;5066989;28;20349;-77
2023/03/02 09:48:07;;;;;;;0.60;0.60;;;7.60;99.90;;;;;;5066200;28;20220;-77
2023/03/02 09:51:13;;;;;;;0.73;0.73;;;7.80;99.90;;;;;;5074140;28;20200;-76
2023/03/02 09:54:05;;;;;;;0.45;0.45;;;7.70;99.90;;;;;;5037312;28;20361;-77
2023/03/02 09:56:36;;;;;;;1.23;1.13;;;7.90;99.90;;;;;;5068862;28;20283;-77
2023/03/02 09:59:17;;;;;;;1.73;1.63;;;8.00;99.90;;;;;;5054237;28;20284;-77
2023/03/02 10:01:53;;;;;;;1.73;1.60;;;8.30;99.90;;;;;;5053872;28;20275;-76
2023/03/02 10:04:28;;;;;;;0.60;0.60;;;8.60;99.90;;;;;;5071868;28;20228;-77
2023/03/02 10:07:15;;;;;;;0.55;0.55;;;8.70;99.90;;;;;;5072325;28;20222;-77
2023/03/02 10:09:41;;;;;;;0.68;0.68;;;8.80;99.90;;;;;;5054318;28;20291;-76
2023/03/02 10:12:43;;;;;;;13.45;1.13;;;8.80;99.90;;;;;;5071970;28;20196;-77
2023/03/02 10:15:27;;;;;;;0.60;0.60;;;8.90;99.90;;;;;;5054047;28;20203;-77
2023/03/02 10:18:02;;;;;;;0.60;0.60;;;9.30;99.90;;;;;;5071862;28;20197;-77
2023/03/02 10:21:02;;;;;;;0.60;0.60;;;9.60;99.90;;;;;;5071729;28;20282;-77
2023/03/02 10:23:57;;;;;;;0.60;0.60;;;9.60;99.90;;;;;;5042957;28;20240;-78
2023/03/02 10:26:49;;;;;;;0.60;0.60;;;9.50;99.90;;;;;;5053549;28;20299;-77
2023/03/02 10:29:23;;;;;;;0.60;0.60;;;9.70;99.90;;;;;;5046940;28;20208;-77
2023/03/02 10:32:13;;;;;;;0.55;0.55;;;10.40;99.90;;;;;;5071924;28;20552;-77
2023/03/02 10:34:39;;;;;;;0.57;0.57;;;10.70;99.90;;;;;;5046982;28;20213;-77
2023/03/02 10:37:17;;;;;;;0.70;0.70;;;11.10;99.90;;;;;;5055437;28;20273;-77
2023/03/02 10:39:43;;;;;;;1.88;0.93;;;10.80;99.90;;;;;;5055374;28;20566;-77
2023/03/02 10:42:29;;;;;;;0.50;0.50;;;10.70;99.90;;;;;;5092882;28;20208;-77
2023/03/02 10:45:05;;;;;;;0.57;0.57;;;10.40;99.90;;;;;;5077411;28;20204;-77
2023/03/02 10:47:30;;;;;;;0.60;0.60;;;9.70;99.90;;;;;;5095560;28;20210;-77
2023/03/02 10:49:57;;;;;;;0.50;0.50;;;9.30;99.90;;;;;;5077359;28;20196;-77
2023/03/02 10:52:25;;;;;;;0.50;0.50;;;9.10;99.90;;;;;;5082076;28;20681;-78
2023/03/02 10:55:14;;;;;;;0.60;0.60;;;9.20;99.90;;;;;;5057278;28;20196;-77
2023/03/02 10:57:42;;;;;;;0.95;0.95;;;9.20;99.90;;;;;;5074831;28;20211;-77
2023/03/02 11:00:21;;;;;;;0.70;0.70;;;9.40;99.90;;;;;;5057061;28;20298;-77
2023/03/02 11:02:48;;;;;;;0.60;0.60;;;9.30;99.90;;;;;;5074866;28;20204;-77
2023/03/02 11:05:22;;;;;;;0.60;0.60;;;9.20;99.90;;;;;;5074791;28;20223;-77
2023/03/02 11:07:58;;;;;;;3.15;1.20;;;9.00;99.90;;;;;;5074951;28;20220;-77
2023/03/02 11:10:30;;;;;;;0.70;0.70;;;9.00;99.90;;;;;;5056610;28;20201;-77
2023/03/02 11:12:57;;;;;;;0.60;0.60;;;9.20;99.90;;;;;;5056924;28;20207;-77
2023/03/02 11:15:28;;;;;;;0.70;0.70;;;9.70;99.90;;;;;;5056506;28;20326;-77
2023/03/02 11:18:03;;;;;;;1.48;1.20;;;10.00;99.90;;;;;;5074652;28;20200;-78
2023/03/02 11:20:33;;;;;;;0.50;0.50;;;10.10;99.90;;;;;;5074455;28;20199;-77
2023/03/02 11:23:25;;;;;;;0.60;0.60;;;10.00;99.90;;;;;;5056758;28;20197;-77
2023/03/02 11:25:55;;;;;;;0.60;0.60;;;10.00;99.90;;;;;;5056288;28;20204;-76
2023/03/02 11:28:58;;;;;;;0.60;0.60;;;9.90;99.90;;;;;;5074084;28;20213;-77
2023/03/02 11:31:39;;;;;;;0.50;0.50;;;9.70;99.90;;;;;;5074231;28;20659;-78
2023/03/02 11:34:06;;;;;;;0.68;0.68;;;9.60;99.90;;;;;;5058513;28;20555;-77
2023/03/02 11:37:05;;;;;;;0.50;0.50;;;9.50;99.90;;;;;;5061976;28;20500;-77
2023/03/02 11:39:55;;;;;;;0.60;0.60;;;9.60;99.90;;;;;;5076265;28;20192;-76
2023/03/02 11:42:29;;;;;;;0.60;0.60;;;9.70;99.90;;;;;;5076096;28;20196;-77
2023/03/02 11:44:55;;;;;;;0.50;0.50;;;9.80;99.90;;;;;;5094483;28;20188;-77
2023/03/02 11:47:21;;;;;;;1.73;1.10;;;10.10;99.90;;;;;;5073249;28;20201;-79
2023/03/02 11:49:53;;;;;;;0.55;0.55;;;10.30;99.90;;;;;;5056121;28;20262;-77
2023/03/02 11:52:26;;;;;;;0.70;0.70;;;10.30;99.90;;;;;;5074153;28;20188;-77
2023/03/02 11:54:54;;;;;;;0.50;0.50;;;10.20;99.90;;;;;;5056386;28;20193;-78
2023/03/02 11:57:26;;;;;;;0.50;0.50;;;10.10;99.90;;;;;;5055902;28;20606;-78
2023/03/02 11:59:53;;;;;;;0.40;0.40;;;10.10;99.90;;;;;;5056034;28;20196;-78
2023/03/02 12:02:20;;;;;;;0.50;0.50;;;10.30;99.90;;;;;;5073547;28;20671;-78
2023/03/02 12:04:47;;;;;;;3.92;1.00;;;10.60;99.90;;;;;;5073552;28;20224;-77
2023/03/02 12:07:23;;;;;;;0.50;0.50;;;10.60;99.90;;;;;;5055798;28;20319;-77
2023/03/02 12:10:22;;;;;;;0.50;0.50;;;10.70;99.90;;;;;;5073760;28;20193;-77
2023/03/02 12:13:16;;;;;;;0.57;0.57;;;10.30;99.90;;;;;;5035836;28;20559;-77
2023/03/02 12:15:44;;;;;;;0.50;0.50;;;10.30;99.90;;;;;;5053541;28;20217;-77
2023/03/02 12:18:22;;;;;;;0.50;0.50;;;10.30;98.60;;;;;;5035597;28;20197;-77
2023/03/02 12:21:05;;;;;;;0.50;0.50;;;10.30;99.90;;;;;;5052323;28;20216;-77
2023/03/02 12:23:34;;;;;;;0.50;0.50;;;10.50;99.90;;;;;;5054083;28;20196;-77
2023/03/02 12:26:07;;;;;;;0.60;0.60;;;10.50;99.90;;;;;;5055513;28;20247;-76
2023/03/02 12:28:37;;;;;;;0.52;0.52;;;10.40;99.90;;;;;;5055226;28;20756;-77
2023/03/02 12:31:11;;;;;;;0.90;0.90;;;10.00;99.90;;;;;;5073271;28;20185;-77
2023/03/02 12:33:45;;;;;;;0.50;0.50;;;9.70;99.90;;;;;;5065630;28;20203;-77
2023/03/02 12:36:17;;;;;;;0.60;0.60;;;9.40;99.90;;;;;;5075493;28;20200;-77
2023/03/02 12:38:49;;;;;;;0.60;0.60;;;9.00;99.90;;;;;;5075084;28;20203;-77
2023/03/02 12:41:56;;;;;;;0.60;0.60;;;8.80;99.90;;;;;;5075229;28;20671;-77
2023/03/02 12:44:50;;;;;;;0.50;0.50;;;8.80;99.90;;;;;;5075802;28;20212;-78
2023/03/02 12:47:25;;;;;;;0.60;0.60;;;8.90;99.90;;;;;;5054927;28;20209;-77
2023/03/02 12:50:22;;;;;;;0.60;0.60;;;9.20;99.90;;;;;;5073042;28;20652;-77
2023/03/02 12:53:18;;;;;;;0.98;0.98;;;9.50;99.90;;;;;;5053497;28;20227;-77
2023/03/02 12:55:44;;;;;;;0.60;0.60;;;9.90;99.90;;;;;;5056317;28;20303;-77
2023/03/02 12:58:17;;;;;;;0.60;0.60;;;10.10;99.90;;;;;;5072108;28;20197;-77
2023/03/02 13:00:49;;;;;;;0.50;0.50;;;10.00;99.90;;;;;;5054719;28;20199;-77
2023/03/02 13:03:15;;;;;;;1.15;1.05;;;10.10;99.90;;;;;;5054606;28;20196;-77
2023/03/02 13:05:41;;;;;;;0.50;0.50;;;10.30;99.90;;;;;;5072440;28;20232;-78
2023/03/02 13:08:28;;;;;;;0.50;0.50;;;10.40;99.90;;;;;;5054407;28;20212;-77